createdAt,value
2023-09-17T00:01:33.093Z,6.97
2023-09-17T00:06:25.735Z,8.73
2023-09-17T00:11:18.214Z,7.38
2023-09-17T00:16:11.601Z,7.72
2023-09-17T00:21:06.758Z,8.38
2023-09-17T00:26:01.797Z,6.90
2023-09-17T00:30:55.640Z,9.00
2023-09-17T00:35:47.845Z,7.80
2023-09-17T00:40:41.399Z,7.13
2023-09-17T00:45:33.965Z,9.68
2023-09-17T00:50:27.207Z,10.82
2023-09-17T00:55:19.764Z,8.73
2023-09-17T01:00:12.610Z,7.38
2023-09-17T01:10:14.960Z,6.88
2023-09-17T01:15:19.482Z,8.15
2023-09-17T01:20:26.972Z,8.98
2023-09-17T01:25:44.092Z,5.78
2023-09-17T01:46:08.890Z,5.88
2023-09-17T01:51:08.104Z,6.45
2023-09-17T01:56:00.702Z,7.03
2023-09-17T02:00:53.726Z,9.00
2023-09-17T02:05:45.766Z,8.38
2023-09-17T02:10:37.954Z,8.93
2023-09-17T02:15:31.140Z,7.20
2023-09-17T02:20:23.364Z,7.50
2023-09-17T02:25:15.918Z,6.60
2023-09-17T02:30:09.596Z,7.68
2023-09-17T02:35:01.562Z,8.40
2023-09-17T02:39:53.395Z,6.45
2023-09-17T02:44:45.311Z,5.78
2023-09-17T02:49:37.317Z,5.50
2023-09-17T02:54:29.168Z,9.07
2023-09-17T02:59:20.941Z,6.15
2023-09-17T03:04:12.651Z,6.93
2023-09-17T03:09:11.461Z,6.70
2023-09-17T03:14:04.276Z,6.38
2023-09-17T03:18:56.768Z,6.78
2023-09-17T03:23:49.216Z,7.70
2023-09-17T03:28:41.538Z,7.43
2023-09-17T03:33:33.480Z,8.25
2023-09-17T03:38:25.470Z,10.27
2023-09-17T03:43:17.792Z,7.40
2023-09-17T03:48:10.100Z,7.35
2023-09-17T03:53:07.101Z,8.00
2023-09-17T03:57:59.114Z,9.85
2023-09-17T04:02:51.154Z,6.75
2023-09-17T04:07:45.542Z,7.28
2023-09-17T04:12:39.891Z,9.50
2023-09-17T04:17:32.455Z,7.10
2023-09-17T04:22:24.251Z,7.38
2023-09-17T04:27:16.630Z,8.35
2023-09-17T04:32:08.487Z,9.80
2023-09-17T04:37:01.367Z,6.78
2023-09-17T04:41:53.368Z,7.97
2023-09-17T04:46:48.892Z,8.20
2023-09-17T04:51:40.832Z,8.05
2023-09-17T04:56:37.339Z,7.93
2023-09-17T05:01:30.120Z,10.07
2023-09-17T05:06:22.265Z,11.27
2023-09-17T05:11:14.731Z,7.05
2023-09-17T05:16:07.387Z,7.13
2023-09-17T05:20:59.305Z,6.72
2023-09-17T05:25:51.338Z,6.93
2023-09-17T05:30:43.882Z,7.25
2023-09-17T05:35:38.059Z,6.53
2023-09-17T05:45:43.666Z,8.15
2023-09-17T05:50:42.126Z,10.25
2023-09-17T05:55:40.365Z,7.97
2023-09-17T06:05:37.998Z,10.15
2023-09-17T06:10:29.880Z,10.98
2023-09-17T06:15:21.630Z,9.90
2023-09-17T06:20:13.443Z,10.32
2023-09-17T06:25:05.743Z,9.00
2023-09-17T06:29:57.528Z,9.63
2023-09-17T06:34:49.329Z,8.55
2023-09-17T06:39:41.119Z,7.95
2023-09-17T06:44:32.811Z,8.30
2023-09-17T06:49:24.584Z,6.80
2023-09-17T06:54:17.736Z,8.25
2023-09-17T06:59:09.693Z,9.18
2023-09-17T07:04:01.777Z,8.35
2023-09-17T07:08:55.805Z,6.53
2023-09-17T07:13:50.266Z,7.13
2023-09-17T07:18:42.428Z,7.78
2023-09-17T07:23:42.094Z,7.35
2023-09-17T07:28:35.853Z,6.35
2023-09-17T07:33:29.630Z,7.20
2023-09-17T07:38:21.538Z,7.63
2023-09-17T07:43:20.994Z,8.75
2023-09-17T07:48:12.759Z,7.20
2023-09-17T07:53:05.982Z,9.27
2023-09-17T07:57:57.791Z,8.43
2023-09-17T08:02:53.891Z,7.35
2023-09-17T08:07:46.719Z,8.43
2023-09-17T08:12:38.775Z,9.43
2023-09-17T08:17:30.731Z,8.02
2023-09-17T08:22:27.220Z,8.63
2023-09-17T08:27:19.772Z,6.75
2023-09-17T08:32:12.243Z,6.63
2023-09-17T08:37:05.460Z,7.38
2023-09-17T08:42:01.348Z,8.48
2023-09-17T08:46:56.868Z,7.03
2023-09-17T08:51:53.635Z,7.13
2023-09-17T08:56:47.146Z,5.97
2023-09-17T09:01:45.504Z,8.77
2023-09-17T09:06:40.444Z,6.05
2023-09-17T09:11:37.772Z,6.47
2023-09-17T09:16:29.811Z,7.55
2023-09-17T09:21:22.178Z,5.00
2023-09-17T09:26:15.154Z,6.60
2023-09-17T09:31:09.486Z,7.47
2023-09-17T09:36:02.031Z,6.18
2023-09-17T09:40:55.108Z,6.10
2023-09-17T09:45:49.353Z,6.18
2023-09-17T09:50:43.308Z,8.55
2023-09-17T09:55:35.155Z,8.50
2023-09-17T10:00:30.158Z,7.63
2023-09-17T10:05:38.141Z,8.30
2023-09-17T10:10:32.530Z,8.57
2023-09-17T10:15:24.676Z,6.63
2023-09-17T10:20:19.455Z,7.25
2023-09-17T10:25:15.861Z,7.10
2023-09-17T10:30:09.432Z,6.72
2023-09-17T10:35:04.841Z,5.03
2023-09-17T10:39:58.450Z,3.75
2023-09-17T10:44:57.240Z,5.25
2023-09-17T10:49:50.543Z,2.63
2023-09-17T10:54:42.443Z,4.63
2023-09-17T10:59:34.429Z,2.53
2023-09-17T11:04:29.347Z,2.50
2023-09-17T11:09:21.753Z,2.50
2023-09-17T11:14:16.393Z,3.58
2023-09-17T11:19:12.789Z,4.03
2023-09-17T11:24:10.974Z,3.85
2023-09-17T11:29:06.915Z,4.30
2023-09-17T11:33:59.307Z,6.55
2023-09-17T11:38:51.522Z,5.03
2023-09-17T11:43:52.529Z,3.00
2023-09-17T11:48:45.843Z,3.65
2023-09-17T11:53:58.586Z,2.88
2023-09-17T11:59:11.820Z,3.40
2023-09-17T12:04:09.124Z,3.33
2023-09-17T12:09:42.485Z,2.83
2023-09-17T12:14:35.088Z,3.25
2023-09-17T12:19:27.222Z,3.97
2023-09-17T12:24:29.174Z,2.83
2023-09-17T12:29:21.370Z,2.88
2023-09-17T12:34:13.347Z,3.17
2023-09-17T12:39:05.599Z,4.32
2023-09-17T12:43:57.369Z,2.70
2023-09-17T12:48:49.198Z,3.20
2023-09-17T12:53:43.251Z,3.75
2023-09-17T12:58:35.122Z,2.13
2023-09-17T13:03:26.911Z,3.75
2023-09-17T13:08:18.884Z,2.10
2023-09-17T13:13:11.012Z,3.35
2023-09-17T13:18:03.061Z,3.85
2023-09-17T13:22:55.029Z,1.98
2023-09-17T13:27:46.832Z,5.32
2023-09-17T13:32:38.675Z,2.35
2023-09-17T13:37:30.608Z,2.03
2023-09-17T13:42:22.541Z,1.90
2023-09-17T13:47:14.503Z,2.78
2023-09-17T13:52:07.363Z,2.58
2023-09-17T13:56:59.080Z,1.98
2023-09-17T14:01:51.052Z,2.55
2023-09-17T14:06:42.779Z,2.03
2023-09-17T14:11:36.927Z,3.35
2023-09-17T14:16:28.641Z,1.75
2023-09-17T14:21:20.421Z,2.15
2023-09-17T14:26:12.179Z,3.47
2023-09-17T14:31:04.302Z,1.88
2023-09-17T14:35:56.006Z,1.67
2023-09-17T14:40:47.741Z,2.53
2023-09-17T14:45:39.557Z,1.77
2023-09-17T14:55:40.464Z,1.55
2023-09-17T15:00:32.931Z,2.88
2023-09-17T15:05:24.750Z,2.10
2023-09-17T15:10:16.508Z,2.60
2023-09-17T15:15:08.551Z,2.50
2023-09-17T15:20:00.688Z,2.25
2023-09-17T15:24:52.454Z,1.52
2023-09-17T15:29:44.151Z,1.40
2023-09-17T15:39:45.603Z,3.17
2023-09-17T15:44:38.524Z,1.73
2023-09-17T15:49:30.254Z,2.20
2023-09-17T15:54:22.050Z,2.60
2023-09-17T15:59:13.942Z,4.55
2023-09-17T16:04:06.241Z,1.60
2023-09-17T16:08:58.115Z,1.92
2023-09-17T16:13:50.308Z,2.45
2023-09-17T16:18:43.034Z,2.97
2023-09-17T16:23:35.734Z,3.85
2023-09-17T16:28:27.576Z,2.97
2023-09-17T16:33:19.403Z,1.83
2023-09-17T16:38:11.280Z,2.97
2023-09-17T16:43:09.448Z,3.17
2023-09-17T16:48:02.990Z,2.17
2023-09-17T16:52:54.783Z,2.55
2023-09-17T16:57:46.538Z,1.90
2023-09-17T17:02:38.425Z,3.38
2023-09-17T17:07:30.287Z,2.10
2023-09-17T17:12:23.720Z,3.35
2023-09-17T17:17:15.456Z,2.00
2023-09-17T17:22:07.282Z,4.32
2023-09-17T17:26:58.982Z,3.13
2023-09-17T17:31:50.957Z,2.95
2023-09-17T17:36:42.765Z,2.92
2023-09-17T17:41:34.475Z,8.00
2023-09-17T17:46:26.555Z,6.82
2023-09-17T17:51:18.618Z,4.70
2023-09-17T17:56:11.334Z,3.13
2023-09-17T18:01:05.172Z,5.10
2023-09-17T18:11:06.218Z,3.80
2023-09-17T18:16:00.258Z,3.75
2023-09-17T18:20:52.003Z,3.65
2023-09-17T18:25:53.580Z,5.45
2023-09-17T18:30:49.312Z,6.45
2023-09-17T18:35:41.086Z,4.45
2023-09-17T18:40:33.601Z,4.10
2023-09-17T18:45:29.537Z,4.75
2023-09-17T18:50:21.288Z,3.85
2023-09-17T18:55:13.007Z,4.97
2023-09-17T19:00:09.781Z,7.63
2023-09-17T19:10:15.138Z,5.28
2023-09-17T19:15:08.863Z,4.40
2023-09-17T19:20:00.915Z,5.57
2023-09-17T19:24:52.912Z,9.73
2023-09-17T19:29:45.414Z,6.93
2023-09-17T19:34:37.202Z,5.05
2023-09-17T19:39:28.969Z,6.93
2023-09-17T19:44:20.857Z,6.00
2023-09-17T19:49:12.720Z,7.00
2023-09-17T19:54:06.727Z,10.07
2023-09-17T19:59:01.936Z,4.65
2023-09-17T20:03:56.294Z,5.47
2023-09-17T20:08:48.173Z,5.00
2023-09-17T20:13:39.910Z,6.90
2023-09-17T20:18:31.641Z,4.45
2023-09-17T20:23:23.739Z,5.10
2023-09-17T20:28:18.557Z,5.22
2023-09-17T20:33:11.112Z,4.15
2023-09-17T20:38:03.813Z,5.22
2023-09-17T20:42:56.488Z,6.32
2023-09-17T20:47:48.273Z,5.57
2023-09-17T20:52:40.713Z,5.47
2023-09-17T20:57:32.496Z,2.83
2023-09-17T21:02:27.655Z,4.50
2023-09-17T21:07:19.522Z,4.68
2023-09-17T21:12:11.235Z,5.82
2023-09-17T21:17:03.119Z,5.65
2023-09-17T21:21:54.854Z,6.80
2023-09-17T21:26:46.613Z,7.38
2023-09-17T21:31:38.377Z,7.30
2023-09-17T21:36:30.154Z,8.85
2023-09-17T21:41:22.029Z,7.43
2023-09-17T21:46:13.856Z,9.68
2023-09-17T21:51:05.701Z,5.90
2023-09-17T21:55:57.490Z,6.15
2023-09-17T22:00:50.366Z,5.72
2023-09-17T22:05:47.662Z,4.72
2023-09-17T22:10:40.541Z,6.25
2023-09-17T22:15:32.874Z,6.60
2023-09-17T22:20:25.696Z,8.63
2023-09-17T22:25:17.640Z,7.50
2023-09-17T22:30:10.163Z,4.18
2023-09-17T22:35:02.230Z,5.47
2023-09-17T22:39:54.733Z,4.65
2023-09-17T22:44:46.743Z,4.80
2023-09-17T22:49:39.547Z,3.08
2023-09-17T22:54:33.894Z,5.85
2023-09-17T22:59:26.013Z,4.63
2023-09-17T23:04:17.730Z,3.70
2023-09-17T23:09:10.763Z,3.13
2023-09-17T23:14:07.843Z,6.05
2023-09-17T23:19:01.356Z,6.47
2023-09-17T23:23:54.228Z,5.15
2023-09-17T23:28:47.019Z,5.18
2023-09-17T23:33:39.333Z,5.55
2023-09-17T23:38:32.441Z,4.60
2023-09-17T23:43:24.335Z,4.10
2023-09-17T23:48:16.706Z,4.93
2023-09-17T23:53:08.563Z,3.63
2023-09-17T23:58:00.368Z,4.00
